Time;durP1;ratioP1;P1;durP2;ratioP2;P2;SDS_P1;SDS_P2;PMS_P1;PMS_P2;Temp;Humidity;BMP_temperature;BMP_pressure;BME280_temperature;BME280_humidity;BME280_pressure;Samples;Min_cycle;Max_cycle;Signal;HPM_P1;HPM_P2
2023/10/24 00:00:51;;;;;;;20.27;15.07;;;9.70;99.90;;;;;;5094624;28;20048;-79
2023/10/24 00:03:18;;;;;;;21.20;14.45;;;9.70;99.90;;;;;;5077382;28;20086;-78
2023/10/24 00:05:44;;;;;;;28.02;16.35;;;9.70;99.90;;;;;;5085828;28;20048;-77
2023/10/24 00:08:10;;;;;;;26.63;16.17;;;9.70;99.90;;;;;;5093235;28;20044;-78
2023/10/24 00:10:36;;;;;;;22.30;14.98;;;9.70;99.90;;;;;;5093029;28;20092;-76
2023/10/24 00:13:02;;;;;;;24.85;15.63;;;9.70;99.90;;;;;;5082188;28;20040;-77
2023/10/24 00:15:27;;;;;;;18.98;15.38;;;10.30;99.90;;;;;;5084281;28;20481;-77
2023/10/24 00:17:53;;;;;;;23.83;15.80;;;9.70;99.90;;;;;;5114543;28;20446;-78
2023/10/24 00:20:18;;;;;;;26.17;16.38;;;9.70;99.90;;;;;;5098810;28;20066;-78
2023/10/24 00:22:44;;;;;;;25.42;17.27;;;9.70;99.90;;;;;;5099085;28;20046;-77
2023/10/24 00:25:10;;;;;;;21.10;15.57;;;9.70;99.90;;;;;;5102560;27;20044;-77
2023/10/24 00:27:36;;;;;;;23.13;16.08;;;9.70;99.90;;;;;;5085988;28;20036;-77
2023/10/24 00:30:01;;;;;;;22.25;16.38;;;9.70;99.90;;;;;;5080145;28;20122;-76
2023/10/24 00:32:27;;;;;;;23.02;16.00;;;9.80;99.90;;;;;;5080101;28;20055;-77
2023/10/24 00:34:53;;;;;;;23.40;16.20;;;9.70;99.90;;;;;;5083819;28;20146;-77
2023/10/24 00:37:18;;;;;;;19.83;15.27;;;9.70;99.90;;;;;;5091102;28;20048;-78
2023/10/24 00:39:44;;;;;;;22.10;16.17;;;9.80;99.90;;;;;;5095592;28;20048;-77
2023/10/24 00:42:09;;;;;;;23.02;16.38;;;9.80;99.90;;;;;;5081954;28;20044;-76
2023/10/24 00:44:35;;;;;;;24.00;16.58;;;9.80;99.90;;;;;;5068192;28;20121;-77
2023/10/24 00:47:01;;;;;;;20.30;15.88;;;9.80;99.90;;;;;;5097428;28;20040;-77
2023/10/24 00:49:27;;;;;;;21.17;15.75;;;9.80;99.90;;;;;;5099885;28;20075;-78
2023/10/24 00:51:55;;;;;;;24.73;15.98;;;9.80;99.90;;;;;;5098413;28;20052;-76
2023/10/24 00:54:21;;;;;;;20.00;14.88;;;10.20;99.90;;;;;;5073889;28;20047;-77
2023/10/24 00:56:50;;;;;;;24.77;17.17;;;9.80;99.90;;;;;;5086719;28;20083;-77
2023/10/24 00:59:23;;;;;;;20.33;15.90;;;9.80;99.90;;;;;;5086035;28;20115;-79
2023/10/24 01:01:55;;;;;;;20.85;15.55;;;9.80;99.90;;;;;;5079532;28;20071;-78
2023/10/24 01:04:30;;;;;;;25.63;16.08;;;9.80;99.90;;;;;;5081859;28;20040;-78
2023/10/24 01:06:56;;;;;;;23.98;16.80;;;9.80;99.90;;;;;;5081046;28;20101;-77
2023/10/24 01:09:22;;;;;;;22.08;16.85;;;9.80;99.90;;;;;;5088525;28;20036;-79
2023/10/24 01:11:53;;;;;;;25.00;18.00;;;9.90;99.90;;;;;;5062395;28;20047;-78
2023/10/24 01:14:19;;;;;;;23.17;17.63;;;11.10;99.90;;;;;;5096732;28;20040;-77
2023/10/24 01:16:45;;;;;;;25.33;18.20;;;9.70;99.90;;;;;;5090556;28;20519;-77
2023/10/24 01:19:12;;;;;;;24.55;17.52;;;9.70;99.90;;;;;;5076909;28;20125;-78
2023/10/24 01:21:45;;;;;;;23.20;16.88;;;9.40;99.90;;;;;;5093964;28;20064;-77
2023/10/24 01:24:16;;;;;;;23.42;17.80;;;9.70;99.90;;;;;;5095934;28;20048;-77
2023/10/24 01:26:46;;;;;;;33.25;18.50;;;9.70;99.90;;;;;;5078347;28;20072;-78
2023/10/24 01:29:12;;;;;;;25.40;17.55;;;9.70;99.90;;;;;;5080184;28;20041;-77
2023/10/24 01:31:38;;;;;;;29.27;18.08;;;9.70;99.90;;;;;;5090753;28;20367;-77
2023/10/24 01:34:04;;;;;;;27.27;18.58;;;9.70;99.90;;;;;;5093660;28;20043;-77
2023/10/24 01:36:30;;;;;;;28.75;19.20;;;9.70;99.90;;;;;;5083614;28;20040;-77
2023/10/24 01:38:56;;;;;;;26.77;18.95;;;9.70;99.90;;;;;;5077127;28;20119;-76
2023/10/24 01:41:22;;;;;;;24.05;18.17;;;9.70;99.90;;;;;;5091358;28;20126;-77
2023/10/24 01:43:47;;;;;;;28.00;18.80;;;9.70;99.90;;;;;;5093198;28;20091;-77
2023/10/24 01:46:13;;;;;;;29.23;20.77;;;9.70;99.90;;;;;;5090346;28;20032;-77
2023/10/24 01:48:40;;;;;;;32.15;20.63;;;9.80;99.90;;;;;;5085223;28;20044;-77
2023/10/24 01:51:06;;;;;;;29.80;20.25;;;9.70;99.90;;;;;;5098405;28;20079;-78
2023/10/24 01:53:31;;;;;;;29.63;21.25;;;9.70;99.90;;;;;;5075578;28;20478;-78
2023/10/24 01:55:57;;;;;;;28.58;20.13;;;9.70;99.90;;;;;;5084435;28;20096;-78
2023/10/24 01:58:22;;;;;;;32.40;21.65;;;9.70;99.90;;;;;;5097209;28;20036;-78
2023/10/24 02:00:48;;;;;;;34.40;22.25;;;9.70;99.90;;;;;;5111927;28;20051;-77
2023/10/24 02:03:14;;;;;;;34.65;23.33;;;9.70;99.90;;;;;;5080255;28;20466;-78
2023/10/24 02:05:39;;;;;;;36.97;22.95;;;9.60;99.90;;;;;;5084590;28;20059;-77
2023/10/24 02:08:05;;;;;;;33.72;22.77;;;9.70;99.90;;;;;;5106628;28;20147;-77
2023/10/24 02:10:31;;;;;;;41.78;24.42;;;9.70;99.90;;;;;;5095366;28;20477;-77
2023/10/24 02:12:57;;;;;;;40.20;25.88;;;9.70;99.90;;;;;;5095051;28;20409;-77
2023/10/24 02:15:22;;;;;;;39.03;24.83;;;9.70;99.90;;;;;;5097923;28;20036;-77
2023/10/24 02:17:48;;;;;;;38.35;23.98;;;9.70;99.90;;;;;;5086805;28;20083;-77
2023/10/24 02:20:14;;;;;;;39.88;25.88;;;9.70;99.90;;;;;;5078717;28;20074;-77
2023/10/24 02:22:39;;;;;;;39.05;25.63;;;9.70;99.90;;;;;;5072694;28;20063;-77
2023/10/24 02:25:07;;;;;;;41.17;25.45;;;9.70;99.90;;;;;;5099688;28;20067;-76
2023/10/24 02:27:34;;;;;;;42.65;27.40;;;9.70;99.90;;;;;;5100196;28;20044;-77
2023/10/24 02:30:01;;;;;;;41.40;22.67;;;9.70;99.90;;;;;;5094730;28;20047;-77
2023/10/24 02:32:26;;;;;;;45.92;27.02;;;9.70;99.90;;;;;;5079207;28;20055;-77
2023/10/24 02:34:52;;;;;;;44.97;28.58;;;9.80;99.90;;;;;;5084282;28;20044;-78
2023/10/24 02:37:20;;;;;;;48.42;29.15;;;10.50;99.90;;;;;;5101721;28;20405;-77
2023/10/24 02:39:45;;;;;;;43.83;27.48;;;9.80;99.90;;;;;;5079749;28;20196;-77
2023/10/24 02:42:11;;;;;;;58.25;31.05;;;9.80;99.90;;;;;;5099093;28;20051;-76
2023/10/24 02:44:37;;;;;;;44.45;28.45;;;9.80;99.90;;;;;;5097719;28;20040;-77
2023/10/24 02:47:02;;;;;;;45.20;27.17;;;9.80;99.90;;;;;;5080748;28;20094;-76
2023/10/24 02:49:31;;;;;;;50.58;28.83;;;9.80;99.90;;;;;;5115613;28;20036;-76
2023/10/24 02:51:57;;;;;;;52.75;29.48;;;9.80;99.90;;;;;;5087118;28;20058;-77
2023/10/24 02:54:23;;;;;;;52.47;29.38;;;9.90;99.90;;;;;;5096540;28;20122;-77
2023/10/24 02:56:49;;;;;;;52.03;30.40;;;9.90;99.90;;;;;;5079139;28;20049;-76
2023/10/24 02:59:15;;;;;;;48.17;29.02;;;10.00;99.90;;;;;;5071075;28;20426;-77
2023/10/24 03:01:41;;;;;;;47.55;29.13;;;10.00;99.90;;;;;;5097000;28;20051;-77
2023/10/24 03:04:07;;;;;;;53.58;30.83;;;9.90;99.90;;;;;;5095108;28;20106;-76
2023/10/24 03:06:33;;;;;;;53.75;30.60;;;9.90;99.90;;;;;;5098933;28;20040;-77
2023/10/24 03:08:59;;;;;;;51.15;30.48;;;9.90;99.90;;;;;;5093434;28;20102;-77
2023/10/24 03:11:26;;;;;;;59.15;31.83;;;9.90;99.90;;;;;;5088396;28;20045;-77
2023/10/24 03:13:53;;;;;;;47.70;29.75;;;10.00;99.90;;;;;;5083586;28;20040;-77
2023/10/24 03:16:18;;;;;;;49.75;29.67;;;10.00;99.90;;;;;;5061190;28;20083;-77
2023/10/24 03:18:44;;;;;;;49.60;29.55;;;10.00;99.90;;;;;;5084296;28;20042;-76
2023/10/24 03:21:10;;;;;;;55.97;30.88;;;10.00;99.90;;;;;;5090481;28;20055;-77
2023/10/24 03:23:36;;;;;;;46.20;27.23;;;10.10;99.90;;;;;;5094612;28;20115;-77
2023/10/24 03:26:05;;;;;;;48.70;28.80;;;10.00;99.90;;;;;;5082075;28;20049;-76
2023/10/24 03:28:31;;;;;;;43.38;27.20;;;10.00;99.90;;;;;;5075109;28;20043;-78
2023/10/24 03:31:04;;;;;;;47.17;28.10;;;10.00;99.90;;;;;;5082362;28;20044;-76
2023/10/24 03:33:31;;;;;;;51.50;28.92;;;10.10;99.90;;;;;;5090848;28;20037;-78
2023/10/24 03:36:00;;;;;;;46.47;24.20;;;10.10;99.90;;;;;;5078042;28;20040;-78
2023/10/24 03:38:27;;;;;;;44.53;27.63;;;10.10;99.90;;;;;;5095741;28;20052;-77
2023/10/24 03:40:53;;;;;;;49.03;28.88;;;10.10;99.90;;;;;;5081528;28;20048;-77
2023/10/24 03:43:20;;;;;;;43.05;26.77;;;10.20;99.90;;;;;;5075227;28;20491;-76
2023/10/24 03:45:46;;;;;;;43.67;27.20;;;10.20;99.90;;;;;;5075193;28;20455;-75
2023/10/24 03:48:12;;;;;;;44.78;27.60;;;10.20;99.90;;;;;;5058143;28;20037;-77
2023/10/24 03:50:38;;;;;;;52.60;29.85;;;10.30;99.90;;;;;;5075337;28;20082;-79
2023/10/24 03:53:04;;;;;;;47.17;27.95;;;10.30;99.90;;;;;;5090869;28;20059;-76
2023/10/24 03:55:31;;;;;;;48.97;27.83;;;10.30;99.90;;;;;;5077809;28;20048;-77
2023/10/24 03:57:57;;;;;;;57.65;31.50;;;10.30;99.90;;;;;;5072772;28;20072;-77
2023/10/24 04:00:23;;;;;;;48.30;29.80;;;10.30;99.90;;;;;;5079997;28;20064;-77
2023/10/24 04:02:55;;;;;;;62.40;33.30;;;10.30;99.90;;;;;;5090734;28;20125;-77
2023/10/24 04:05:21;;;;;;;55.20;31.33;;;10.30;99.90;;;;;;5078098;28;20394;-77
2023/10/24 04:07:48;;;;;;;64.65;33.53;;;10.30;99.90;;;;;;5081987;28;20094;-76
2023/10/24 04:10:17;;;;;;;51.40;31.27;;;10.30;99.90;;;;;;5090554;28;20036;-77
2023/10/24 04:12:42;;;;;;;53.28;31.17;;;10.30;99.90;;;;;;5093872;28;20166;-80
2023/10/24 04:15:08;;;;;;;58.60;31.70;;;10.30;99.90;;;;;;5082322;28;20086;-77
2023/10/24 04:17:34;;;;;;;55.92;33.40;;;10.30;99.90;;;;;;5087110;28;20043;-77
2023/10/24 04:20:00;;;;;;;51.95;32.00;;;10.30;99.90;;;;;;5095454;28;20111;-77
2023/10/24 04:22:27;;;;;;;52.20;30.85;;;10.40;99.90;;;;;;5103003;28;20047;-78
2023/10/24 04:24:53;;;;;;;57.50;33.05;;;10.40;99.90;;;;;;5092705;28;20406;-76
2023/10/24 04:27:19;;;;;;;51.35;30.95;;;10.40;99.90;;;;;;5078968;28;20040;-77
2023/10/24 04:29:46;;;;;;;58.97;34.83;;;10.40;99.90;;;;;;5079399;28;20036;-78
2023/10/24 04:32:12;;;;;;;54.13;31.70;;;11.30;99.90;;;;;;5078723;28;20048;-77
2023/10/24 04:34:38;;;;;;;52.42;31.15;;;10.50;99.90;;;;;;5077428;28;20037;-76
2023/10/24 04:37:04;;;;;;;49.97;31.58;;;10.40;99.90;;;;;;5095986;28;20089;-77
2023/10/24 04:39:30;;;;;;;59.83;33.22;;;10.40;99.90;;;;;;5093507;28;20055;-78
2023/10/24 04:41:56;;;;;;;61.22;34.20;;;10.40;99.90;;;;;;5085675;28;20040;-78
2023/10/24 04:44:22;;;;;;;56.42;33.55;;;10.50;99.90;;;;;;5095934;28;20117;-78
2023/10/24 04:46:47;;;;;;;63.20;33.50;;;10.50;99.90;;;;;;5093426;28;20105;-77
2023/10/24 04:49:15;;;;;;;59.08;34.22;;;10.50;99.90;;;;;;5114594;28;20040;-79
2023/10/24 04:51:42;;;;;;;54.33;34.05;;;10.50;99.90;;;;;;5091272;28;20036;-77
2023/10/24 04:54:08;;;;;;;70.57;35.53;;;10.50;99.90;;;;;;5077226;28;20037;-78
2023/10/24 04:56:34;;;;;;;70.43;37.17;;;10.50;99.90;;;;;;5090134;28;20072;-76
2023/10/24 04:59:00;;;;;;;74.75;37.75;;;11.40;99.90;;;;;;5097880;28;20039;-78
2023/10/24 05:01:25;;;;;;;60.47;34.33;;;10.50;99.90;;;;;;5096477;28;20040;-77
2023/10/24 05:03:51;;;;;;;67.38;36.53;;;10.60;99.90;;;;;;5095303;28;20055;-77
2023/10/24 05:06:17;;;;;;;49.55;31.45;;;10.60;99.90;;;;;;5086436;28;20040;-77
2023/10/24 05:08:42;;;;;;;69.45;36.40;;;10.50;99.90;;;;;;5091314;28;20032;-77
2023/10/24 05:11:08;;;;;;;63.08;35.10;;;11.00;99.90;;;;;;5089741;28;20064;-75
2023/10/24 05:13:36;;;;;;;71.85;38.50;;;10.60;99.90;;;;;;5073839;28;20141;-77
2023/10/24 05:16:02;;;;;;;65.10;35.90;;;10.60;99.90;;;;;;5074338;28;20390;-75
2023/10/24 05:18:28;;;;;;;61.35;35.42;;;10.60;99.90;;;;;;5098904;28;20044;-77
2023/10/24 05:20:54;;;;;;;62.58;35.88;;;10.60;99.90;;;;;;5112095;27;20047;-79
2023/10/24 05:23:19;;;;;;;57.72;34.28;;;10.60;99.90;;;;;;5094863;28;20122;-77
2023/10/24 05:25:45;;;;;;;59.65;35.03;;;10.60;99.90;;;;;;5092089;28;20478;-76
2023/10/24 05:28:11;;;;;;;52.45;33.53;;;10.70;99.90;;;;;;5085716;28;20032;-77
2023/10/24 05:30:39;;;;;;;62.33;35.78;;;10.80;99.90;;;;;;5067275;28;20047;-77
2023/10/24 05:33:05;;;;;;;85.07;40.17;;;10.70;99.90;;;;;;5076492;28;20044;-77
2023/10/24 05:35:32;;;;;;;58.90;34.38;;;10.70;99.90;;;;;;5076434;28;20044;-78
2023/10/24 05:38:03;;;;;;;42.25;29.30;;;10.70;99.90;;;;;;5075465;28;20071;-77
2023/10/24 05:40:30;;;;;;;55.95;33.50;;;10.70;99.90;;;;;;5075818;28;20482;-77
2023/10/24 05:42:55;;;;;;;48.88;30.45;;;10.70;99.90;;;;;;5082763;28;20052;-77
2023/10/24 05:45:22;;;;;;;53.30;32.47;;;10.70;99.90;;;;;;5097110;28;20039;-77
2023/10/24 05:47:47;;;;;;;49.97;31.15;;;10.70;99.90;;;;;;5089715;28;20489;-77
2023/10/24 05:50:13;;;;;;;51.60;32.05;;;10.70;99.90;;;;;;5078944;28;20035;-78
2023/10/24 05:52:39;;;;;;;53.55;30.73;;;10.70;99.90;;;;;;5089748;28;20032;-77
2023/10/24 05:55:05;;;;;;;60.45;33.90;;;10.70;99.90;;;;;;5090506;28;20040;-76
2023/10/24 05:57:30;;;;;;;60.83;34.95;;;10.70;99.90;;;;;;5073413;28;20090;-77
2023/10/24 05:59:56;;;;;;;48.15;31.23;;;10.70;99.90;;;;;;5081641;28;20044;-78
2023/10/24 06:02:22;;;;;;;61.58;35.28;;;10.70;99.90;;;;;;5085711;28;20500;-76
2023/10/24 06:04:47;;;;;;;50.58;32.35;;;10.70;99.90;;;;;;5109350;28;20047;-77
2023/10/24 06:07:13;;;;;;;44.53;30.60;;;10.70;99.90;;;;;;5091366;28;20130;-77
2023/10/24 06:09:39;;;;;;;57.85;32.65;;;10.70;99.90;;;;;;5074457;28;20052;-76
2023/10/24 06:12:07;;;;;;;58.30;34.45;;;10.70;99.90;;;;;;5092683;28;20075;-76
2023/10/24 06:14:33;;;;;;;47.55;31.77;;;10.70;99.90;;;;;;5068150;28;20512;-77
2023/10/24 06:17:02;;;;;;;51.42;32.72;;;10.90;99.90;;;;;;5076836;28;20229;-77
2023/10/24 06:19:29;;;;;;;41.95;29.00;;;10.70;99.90;;;;;;5074949;28;20041;-77
2023/10/24 06:21:54;;;;;;;48.40;32.28;;;10.70;99.90;;;;;;5093801;28;20478;-78
2023/10/24 06:24:20;;;;;;;48.60;31.90;;;10.80;99.90;;;;;;5093712;28;20047;-76
2023/10/24 06:26:46;;;;;;;54.75;32.00;;;11.00;99.90;;;;;;5091287;28;20048;-77
2023/10/24 06:29:11;;;;;;;58.28;33.50;;;10.80;99.90;;;;;;5083650;28;20040;-78
2023/10/24 06:31:37;;;;;;;43.85;29.90;;;10.80;99.90;;;;;;5092114;28;20051;-78
2023/10/24 06:34:03;;;;;;;46.40;30.52;;;10.80;99.90;;;;;;5086075;28;20557;-76
2023/10/24 06:36:29;;;;;;;52.40;32.00;;;10.80;99.90;;;;;;5055890;28;20036;-76
2023/10/24 06:38:54;;;;;;;51.92;30.67;;;10.80;99.90;;;;;;5078446;28;20054;-77
2023/10/24 06:41:20;;;;;;;45.08;30.55;;;10.80;99.90;;;;;;5087947;28;20036;-77
2023/10/24 06:43:46;;;;;;;43.08;29.55;;;10.80;99.90;;;;;;5090743;28;20109;-77
2023/10/24 06:46:11;;;;;;;50.72;30.58;;;10.80;99.90;;;;;;5079891;28;20471;-77
2023/10/24 06:48:37;;;;;;;38.60;27.42;;;10.80;99.90;;;;;;5077294;28;20543;-78
2023/10/24 06:51:03;;;;;;;41.35;27.52;;;10.80;99.90;;;;;;5056160;28;20048;-77
2023/10/24 06:53:29;;;;;;;44.58;28.85;;;10.80;99.90;;;;;;5093135;28;20504;-77
2023/10/24 06:56:01;;;;;;;43.88;27.48;;;11.50;99.90;;;;;;5083847;28;20138;-77
2023/10/24 06:58:27;;;;;;;40.72;26.60;;;10.90;99.90;;;;;;5073015;28;20367;-77
2023/10/24 07:00:54;;;;;;;37.67;25.48;;;10.90;99.90;;;;;;5077360;28;20044;-76
2023/10/24 07:03:20;;;;;;;44.50;27.52;;;10.80;99.90;;;;;;5093114;28;20091;-76
2023/10/24 07:05:51;;;;;;;27.95;20.35;;;10.90;99.90;;;;;;5066797;28;20048;-77
2023/10/24 07:08:17;;;;;;;27.88;20.98;;;10.90;99.90;;;;;;5080397;28;20101;-77
2023/10/24 07:10:43;;;;;;;35.10;22.67;;;10.90;99.90;;;;;;5082991;28;20058;-78
2023/10/24 07:13:10;;;;;;;35.53;23.55;;;10.80;99.90;;;;;;5093544;28;20036;-77
2023/10/24 07:15:36;;;;;;;30.92;22.02;;;11.50;99.90;;;;;;5089836;28;20040;-77
2023/10/24 07:18:01;;;;;;;30.95;22.80;;;10.90;99.90;;;;;;5092858;28;20424;-76
2023/10/24 07:20:27;;;;;;;34.58;22.65;;;10.80;99.90;;;;;;5086794;28;20119;-77
2023/10/24 07:22:53;;;;;;;29.02;22.02;;;10.90;99.90;;;;;;5086988;28;20161;-77
2023/10/24 07:25:18;;;;;;;33.17;22.75;;;10.90;99.90;;;;;;5088755;28;20482;-77
2023/10/24 07:27:44;;;;;;;37.05;22.75;;;10.90;99.90;;;;;;5076737;28;20100;-78
2023/10/24 07:30:10;;;;;;;36.13;23.27;;;10.90;99.90;;;;;;5091775;28;20506;-78
2023/10/24 07:32:36;;;;;;;32.50;21.88;;;10.90;99.90;;;;;;5082389;28;20033;-77
2023/10/24 07:35:03;;;;;;;47.53;27.60;;;10.90;99.90;;;;;;5078232;28;20063;-79
2023/10/24 07:37:29;;;;;;;33.33;22.60;;;10.90;99.90;;;;;;5091620;28;20059;-78
2023/10/24 07:39:54;;;;;;;36.38;24.02;;;10.90;99.90;;;;;;5080007;28;20044;-78
2023/10/24 07:42:20;;;;;;;36.17;22.73;;;10.90;99.90;;;;;;5091947;28;20047;-78
2023/10/24 07:44:46;;;;;;;31.50;21.88;;;10.90;99.90;;;;;;5101835;28;20044;-77
2023/10/24 07:47:12;;;;;;;35.72;23.27;;;11.10;99.90;;;;;;5083985;28;20032;-76
2023/10/24 07:49:37;;;;;;;32.65;23.60;;;10.90;99.90;;;;;;5079715;28;20103;-78
2023/10/24 07:52:03;;;;;;;31.48;22.38;;;11.00;99.90;;;;;;5112510;28;20036;-78
2023/10/24 07:54:30;;;;;;;31.92;21.27;;;11.00;99.90;;;;;;5098125;28;20473;-78
2023/10/24 07:56:56;;;;;;;39.88;22.27;;;10.90;99.90;;;;;;5083786;28;20539;-78
2023/10/24 07:59:21;;;;;;;26.38;20.23;;;11.00;99.90;;;;;;5098140;28;20036;-77
2023/10/24 08:01:49;;;;;;;31.75;20.92;;;10.90;99.90;;;;;;5098615;28;20044;-77
2023/10/24 08:04:15;;;;;;;26.48;19.85;;;11.00;99.90;;;;;;5076866;28;20062;-77
2023/10/24 08:06:41;;;;;;;36.88;22.52;;;10.90;99.90;;;;;;5082168;28;20076;-77
2023/10/24 08:09:06;;;;;;;30.38;20.98;;;11.00;99.90;;;;;;5084532;28;20043;-77
2023/10/24 08:11:33;;;;;;;25.95;19.05;;;11.00;99.90;;;;;;5090755;28;20085;-77
2023/10/24 08:13:59;;;;;;;28.63;19.27;;;11.00;99.90;;;;;;5096913;28;20056;-77
2023/10/24 08:16:25;;;;;;;29.70;19.83;;;11.00;99.90;;;;;;5083526;28;20119;-77
2023/10/24 08:18:50;;;;;;;32.92;20.55;;;11.00;99.90;;;;;;5090819;28;20073;-77
2023/10/24 08:21:16;;;;;;;28.48;19.48;;;11.00;99.90;;;;;;5091098;28;20121;-77
2023/10/24 08:23:42;;;;;;;28.80;19.73;;;11.10;99.90;;;;;;5095959;28;20048;-78
2023/10/24 08:26:08;;;;;;;25.67;18.52;;;11.00;99.90;;;;;;5079055;28;20516;-80
2023/10/24 08:28:33;;;;;;;25.10;18.27;;;11.00;99.90;;;;;;5091451;28;20048;-77
2023/10/24 08:30:59;;;;;;;29.33;18.83;;;11.70;99.90;;;;;;5093377;28;20102;-78
2023/10/24 08:33:24;;;;;;;32.13;19.83;;;11.00;99.90;;;;;;5093728;28;20040;-75
2023/10/24 08:35:50;;;;;;;28.00;18.85;;;11.00;99.90;;;;;;5082944;28;20124;-77
2023/10/24 08:38:16;;;;;;;27.73;18.65;;;11.00;99.90;;;;;;5058179;28;20063;-78
2023/10/24 08:40:42;;;;;;;29.52;19.23;;;11.90;99.90;;;;;;5084503;28;20116;-77
2023/10/24 08:43:11;;;;;;;30.50;18.77;;;11.30;99.90;;;;;;5094684;28;20044;-77
2023/10/24 08:45:37;;;;;;;30.05;18.25;;;11.10;99.90;;;;;;5077635;28;20048;-78
2023/10/24 08:48:06;;;;;;;25.20;17.90;;;11.00;99.90;;;;;;5096368;28;20044;-76
2023/10/24 08:50:35;;;;;;;24.30;17.65;;;11.10;99.90;;;;;;5077012;28;20374;-77
2023/10/24 08:53:01;;;;;;;34.47;18.80;;;11.00;99.90;;;;;;5111103;27;20131;-77
2023/10/24 08:55:28;;;;;;;27.40;18.30;;;11.00;99.90;;;;;;5086937;28;20048;-76
2023/10/24 08:57:56;;;;;;;29.97;19.33;;;11.00;99.90;;;;;;5096470;28;20032;-77
2023/10/24 09:00:23;;;;;;;32.58;20.00;;;11.00;99.90;;;;;;5083305;28;20456;-77
2023/10/24 09:02:48;;;;;;;29.27;19.02;;;11.00;99.90;;;;;;5083129;28;20048;-77
2023/10/24 09:05:15;;;;;;;30.88;20.33;;;11.00;99.90;;;;;;5085584;28;20052;-76
2023/10/24 09:07:41;;;;;;;26.75;18.38;;;11.00;99.90;;;;;;5078040;28;20045;-77
2023/10/24 09:10:07;;;;;;;27.27;18.42;;;11.00;99.90;;;;;;5088143;28;20055;-77
2023/10/24 09:12:34;;;;;;;28.10;18.10;;;11.00;99.90;;;;;;5094627;28;20032;-77
2023/10/24 09:15:00;;;;;;;27.20;18.85;;;11.10;99.90;;;;;;5099120;28;20062;-78
2023/10/24 09:17:30;;;;;;;30.15;20.27;;;11.00;99.90;;;;;;5092612;28;20039;-78
2023/10/24 09:19:58;;;;;;;33.95;20.35;;;11.00;99.90;;;;;;5091794;28;20037;-77
2023/10/24 09:22:28;;;;;;;35.03;21.02;;;11.00;99.90;;;;;;5111580;28;20048;-77
2023/10/24 09:24:56;;;;;;;28.50;19.65;;;11.00;99.90;;;;;;5090922;28;20123;-76
2023/10/24 09:27:27;;;;;;;33.15;20.17;;;11.00;99.90;;;;;;5058792;28;20040;-77
2023/10/24 09:29:53;;;;;;;33.03;21.15;;;11.10;99.90;;;;;;5077276;28;20056;-77
2023/10/24 09:32:20;;;;;;;31.90;20.92;;;12.10;99.90;;;;;;5087453;28;20043;-77
2023/10/24 09:34:47;;;;;;;32.83;21.42;;;11.00;99.90;;;;;;5092668;28;20087;-76
2023/10/24 09:37:16;;;;;;;28.85;19.48;;;11.10;99.90;;;;;;5089865;28;20036;-77
2023/10/24 09:39:52;;;;;;;37.25;22.75;;;11.00;99.90;;;;;;5084362;28;20437;-77
2023/10/24 09:42:26;;;;;;;33.47;20.63;;;11.50;99.90;;;;;;5111408;28;20044;-78
2023/10/24 09:45:04;;;;;;;40.92;21.10;;;11.00;99.90;;;;;;5095174;28;20040;-76
2023/10/24 09:47:32;;;;;;;35.13;20.92;;;11.00;99.90;;;;;;5083397;28;20071;-77
2023/10/24 09:49:57;;;;;;;28.00;19.88;;;11.00;99.90;;;;;;5075275;28;20089;-77
2023/10/24 09:52:27;;;;;;;29.70;19.42;;;11.00;99.90;;;;;;5075654;28;20045;-77
2023/10/24 09:54:53;;;;;;;30.60;20.00;;;11.00;99.90;;;;;;5075860;28;20447;-76
2023/10/24 09:57:21;;;;;;;32.00;20.50;;;11.00;99.90;;;;;;5086533;28;20083;-76
2023/10/24 09:59:51;;;;;;;36.42;22.35;;;11.00;99.90;;;;;;5081578;28;20091;-77
2023/10/24 10:02:19;;;;;;;38.65;21.83;;;11.00;99.90;;;;;;5076345;28;20052;-77
2023/10/24 10:04:50;;;;;;;33.08;21.70;;;11.00;99.90;;;;;;5082286;28;20032;-76
2023/10/24 10:07:16;;;;;;;29.15;19.30;;;11.00;99.90;;;;;;5083707;28;20040;-76
2023/10/24 10:09:46;;;;;;;28.45;18.27;;;11.00;99.90;;;;;;5091140;28;20101;-77
2023/10/24 10:12:13;;;;;;;27.05;18.30;;;11.00;99.90;;;;;;5112504;27;20047;-77
2023/10/24 10:14:58;;;;;;;28.40;19.47;;;11.00;99.90;;;;;;5092865;28;20048;-77
2023/10/24 10:17:33;;;;;;;23.77;17.70;;;11.00;99.90;;;;;;5084416;28;20387;-76
2023/10/24 10:20:25;;;;;;;27.50;18.73;;;11.00;99.90;;;;;;5091637;28;20405;-77
2023/10/24 10:22:53;;;;;;;32.65;20.70;;;11.00;99.90;;;;;;5082580;28;20228;-77
2023/10/24 10:25:22;;;;;;;28.98;19.17;;;11.00;99.90;;;;;;5080764;28;20039;-77
2023/10/24 10:28:15;;;;;;;29.77;18.88;;;11.00;99.90;;;;;;5087293;28;20063;-77
2023/10/24 10:30:52;;;;;;;25.60;18.05;;;11.00;99.90;;;;;;5094018;28;20153;-77
2023/10/24 10:33:22;;;;;;;27.25;18.90;;;11.00;99.90;;;;;;5080610;28;20486;-77
2023/10/24 10:36:01;;;;;;;24.35;17.20;;;11.00;99.90;;;;;;5090851;28;20197;-78
2023/10/24 10:38:41;;;;;;;30.95;19.95;;;11.00;99.90;;;;;;5082894;28;20048;-76
2023/10/24 10:41:22;;;;;;;26.38;19.10;;;11.00;99.90;;;;;;5086626;28;20077;-78
2023/10/24 10:43:59;;;;;;;28.67;19.15;;;11.00;99.90;;;;;;5090275;28;20041;-78
2023/10/24 10:46:30;;;;;;;25.98;18.58;;;11.00;99.90;;;;;;5074362;28;20044;-77
2023/10/24 10:49:03;;;;;;;27.05;18.58;;;11.10;99.90;;;;;;5085056;28;20035;-77
2023/10/24 10:51:31;;;;;;;25.52;18.88;;;11.10;99.90;;;;;;5088399;28;20054;-76
2023/10/24 10:54:36;;;;;;;23.60;17.35;;;11.20;99.90;;;;;;5094595;28;20044;-76
2023/10/24 10:57:04;;;;;;;31.98;19.60;;;11.20;99.90;;;;;;5074488;28;20474;-76
2023/10/24 10:59:57;;;;;;;23.88;18.67;;;11.20;99.90;;;;;;5082119;28;20070;-75
2023/10/24 11:02:34;;;;;;;22.33;17.80;;;11.20;99.90;;;;;;5077175;28;20040;-76
2023/10/24 11:05:01;;;;;;;33.28;20.95;;;11.30;99.90;;;;;;5084297;28;20454;-77
2023/10/24 11:07:54;;;;;;;26.45;19.17;;;11.40;99.90;;;;;;5086738;28;20071;-76
2023/10/24 11:10:19;;;;;;;27.92;17.95;;;11.40;99.90;;;;;;5080963;28;20041;-76
2023/10/24 11:12:48;;;;;;;27.75;18.45;;;11.50;99.90;;;;;;5097120;28;20043;-76
2023/10/24 11:15:14;;;;;;;28.52;20.33;;;11.70;99.90;;;;;;5096807;28;20044;-76
2023/10/24 11:17:40;;;;;;;23.63;16.60;;;11.50;99.90;;;;;;5089617;28;20050;-76
2023/10/24 11:20:10;;;;;;;22.48;17.02;;;11.50;99.90;;;;;;5093395;28;20036;-77
2023/10/24 11:22:37;;;;;;;27.77;19.08;;;11.50;99.90;;;;;;5082257;28;20052;-77
2023/10/24 11:25:10;;;;;;;27.10;18.42;;;11.50;99.90;;;;;;5091995;28;20100;-76
2023/10/24 11:27:36;;;;;;;25.30;18.15;;;11.60;99.90;;;;;;5088160;28;20085;-77
2023/10/24 11:30:03;;;;;;;24.83;17.05;;;11.60;99.90;;;;;;5082291;28;20043;-76
2023/10/24 11:32:29;;;;;;;25.92;17.58;;;11.60;99.90;;;;;;5096311;28;20040;-76
2023/10/24 11:34:55;;;;;;;22.58;16.23;;;11.60;99.90;;;;;;5083490;28;20389;-76
2023/10/24 11:37:20;;;;;;;26.88;17.88;;;11.60;99.90;;;;;;5112273;28;20132;-76
2023/10/24 11:39:46;;;;;;;22.08;17.13;;;11.80;99.90;;;;;;5114194;28;20071;-76
2023/10/24 11:42:13;;;;;;;21.90;17.80;;;11.60;99.90;;;;;;5099020;28;20044;-76
2023/10/24 11:44:40;;;;;;;19.77;14.80;;;11.60;99.90;;;;;;5099096;28;20071;-76
2023/10/24 11:47:07;;;;;;;20.42;16.00;;;11.60;99.90;;;;;;5114210;28;20122;-77
2023/10/24 11:49:34;;;;;;;19.88;16.25;;;11.60;99.90;;;;;;5098340;28;20137;-77
2023/10/24 11:52:00;;;;;;;25.52;17.90;;;11.70;99.90;;;;;;5095572;28;20149;-76
2023/10/24 11:54:26;;;;;;;23.58;16.90;;;11.70;99.90;;;;;;5099047;28;20052;-76
2023/10/24 11:56:56;;;;;;;23.80;17.48;;;11.70;99.90;;;;;;5089538;28;20045;-76
2023/10/24 11:59:21;;;;;;;19.92;16.20;;;11.70;99.90;;;;;;5097262;28;20128;-78
2023/10/24 12:01:47;;;;;;;21.80;17.08;;;11.70;99.90;;;;;;5095293;28;20079;-77
2023/10/24 12:04:13;;;;;;;23.90;17.05;;;11.70;99.90;;;;;;5088645;28;20084;-75
2023/10/24 12:06:39;;;;;;;20.48;16.30;;;11.70;99.90;;;;;;5073250;28;20048;-76
2023/10/24 12:09:06;;;;;;;21.25;16.73;;;11.70;99.90;;;;;;5086923;28;20127;-76
2023/10/24 12:11:35;;;;;;;21.70;17.10;;;11.70;99.90;;;;;;5080050;28;20389;-77
2023/10/24 12:14:05;;;;;;;20.08;16.00;;;11.70;99.90;;;;;;5076013;28;20069;-77
2023/10/24 12:16:31;;;;;;;23.85;17.98;;;11.60;99.90;;;;;;5092188;28;20123;-78
2023/10/24 12:18:58;;;;;;;20.70;16.25;;;11.60;99.90;;;;;;5093745;28;20083;-76
2023/10/24 12:21:26;;;;;;;20.58;16.45;;;11.60;99.90;;;;;;5077940;28;20127;-77
2023/10/24 12:23:52;;;;;;;17.83;15.60;;;11.80;99.90;;;;;;5093249;28;20049;-77
2023/10/24 12:26:17;;;;;;;22.63;17.50;;;11.60;99.90;;;;;;5063674;28;20071;-77
2023/10/24 12:28:43;;;;;;;24.05;16.83;;;11.60;99.90;;;;;;5101858;27;20063;-75